segunda-feira, 14 de fevereiro de 2011

ESTADOS UNIDOS PREOCUPADOS COM APREENSÃO DE CARGA DE AVIÃO MILITAR NA ARGENTINA

-Os Estados Unidos estão "perplexos" e preocupados" com uma revista incomum que levou a Argentina, na semana passada, a apreender carga que seguia em avião militar americano, afirmou, em Washington, o porta-voz do Departamento de Estado, Philip Crowley.

Em entrevista à imprensa, Crowley disse que "nos inquieta a forma como foi conduzido o caso, considerando-o "inusual e imprevisto".

A revista efetuada no avião militar americano, no aeroporto de Ezeiza (32 km ao sul de Buenos Aires), aconteceu na quinta-feira passada.

O aparelho C-17 Globemaster III da US Air Force levava "material sensível", destinado a um exercício conjunto, do qual participariam forças de segurança argentinas, e viu parte de sua carga apresada, porque, segundo a Argentina, não foi declarada com antecedência, explicou Crowley.

O governo de Cristina Kirchner anunciou, na ocasião, ter apreendido material "camuflado" que incluía armas, diferentes tipos de drogas, entre elas morfina, e tecnologia para interceptar comunicações, dentro de um carregamento oficial. E que apresentaria a Washington um protesto formal.

"Isto não está certo", respondeu Crowley a uma pergunta sobre a questão.
Segundo a Argentina, a declaração americana da carga continha "uma série de inexatidões e omissões".
"O material apreendido foi entregue à justiça. O avião partiu da Argentina sábado", disse à AFP uma fonte da chancelaria que pediu para não ter o nome divulgado.

O subsecretário adjunto americano para a América latina, Arturo Valenzuela, entrou em contato com o chanceler argentino, Héctor Timerman, segundo a versão de Buenos Aires, para "solicitar uma solução, manifestando a preocupação do Departamento de Defesa de seu país".
Timerman respondeu, de acordo com o comunicado, que "as leis argentinas devem ser cumpridas por todos sem exceção".

A controvérsia bilateral se produz após a Argentina não ter sido incluída na turnê latino-americana do presidente dos Estados Unidos, Barack Obama, em março, que visitará Brasil, Chile e El Salvador.
O governo de Cristina Kirchner já havia mantido atitude cautelosa em relação a documentos secretos da diplomacia americana vazados pelo site WikiLeaks, nos quais é pedida informação sobre a saúde mental da presidente argentina.

fonte/AFP/Terra
Enhanced by Zemanta

AVIÃO ABANDONADO NA CALÇADA NO BAIRRO DO MORUMBI, SÃO PAULO

Comandantes, sobre o avião(homebuilt) abandonado o caso é verídico. Olhem a reportagem que acabei de achar, os vizinhos  já estão reclamando porque o avião esta em cima da calçada, atrapalhando os transeuntes, parece piada mas é a realidade da MEGA  cidade chamada SÃO PAULO..........

 Click no link  para escutar a reportagem : 

Quem tiver uma carrocinha ou um carrinho de mão e quiser ir lá pegar.
 
 
fonte/BlogBodesDoAr

ACIDENTE AÉREO DEIXA 15 MORTOS EM HONDURAS



Quinze pessoas, 13 passageiros e os dois pilotos, morreram na queda nesta segunda-feira de um  bimotor LET-410 da empresa Central American  Airwaysl no municipio de Santa Ana, em Cerro do Hula proximidades de Tegucigalpa.

Entre as vítimas está o ministro de Economia hondurenho, Carlos Chaín, e o secretário-geral da Confederação Unitária de Trabalhadores (CUTH), Israel Salinas, e o Ministro Rodolfo  Robelo, segundo na lista divulgada pela companhia proprietária da aeronave. 

Nome dos Tripulantes e Passageiros

Piloto: Oscar Anderson
Co piloto: Eduardo Fasch

Pasajeros:
1.Israel Salinas
2.Carlos Chaín
3.Plutarco Molina
4.Joaquín Fernández
5.Alejandra Figueroa
6.Lena Cabrera
7.Joaquin Hernández
8.Jim Howard
9.Alejandra Figueroa
10.Rodolfo Robelo, Viceministro de la secretaria de obras publicas transporte y vivienda (Soptravi)
11.Sara Villacorta
12. Karen Acosta
13 .Julio Cabrera


Metars:
MHTG 141500Z 35014KT 5000 VCSH FEW007 BKN020 19/15 Q1023 A3021 NOSIG
MHTG 141400Z 36009KT 5000 VCSH FEW007 BKN020 17/14 Q1022 A3018 NOSIG
MHTG 141300Z 36011KT 9999 FEW007 BKN020 17/15 Q1022 A3018 NOSIG
MHTG 141200Z 36011KT 9999 FEW007 BKN020 16/15 Q1021 A3015 NOSIG
MHTG 141100Z 34012KT 9000 SCT020 16/15 Q1021 A3015 NOSIG
MHTG 141000Z 36012KT 9999 BKN020 17/15 Q1021 A3015 NOSIG
MHTG 140900Z 35012KT 9999 BKN020 17/15 Q1021 A3015 NOSIG


fonte/LaPrensaAvHerald/foto/LaPrensa
Enhanced by Zemanta

MÍSTERIO REVELADO - ANTOINE SAINT-EXUPÉRY...

Foi um segredo guardado durante 64 anos. Horst Rippert, piloto alemão da Luftwaffe, admitiu, aos 88 anos, ter abatido Antoine de St Exu...